sensor_id;sensor_type;location;lat;lon;timestamp;P1;durP1;ratioP1;P2;durP2;ratioP2
20411;SDS011;10365;52.578;8.138;2023-02-15T00:01:16;33.58;;;16.40;;
20411;SDS011;10365;52.578;8.138;2023-02-15T00:03:41;40.90;;;16.73;;
20411;SDS011;10365;52.578;8.138;2023-02-15T00:06:07;33.00;;;15.60;;
20411;SDS011;10365;52.578;8.138;2023-02-15T00:08:32;38.85;;;16.95;;
20411;SDS011;10365;52.578;8.138;2023-02-15T00:11:05;34.78;;;16.88;;
20411;SDS011;10365;52.578;8.138;2023-02-15T00:13:31;35.13;;;16.02;;
20411;SDS011;10365;52.578;8.138;2023-02-15T00:16:00;39.22;;;16.10;;
20411;SDS011;10365;52.578;8.138;2023-02-15T00:18:26;32.50;;;15.48;;
20411;SDS011;10365;52.578;8.138;2023-02-15T00:20:51;36.88;;;17.50;;
20411;SDS011;10365;52.578;8.138;2023-02-15T00:23:17;39.95;;;17.00;;
20411;SDS011;10365;52.578;8.138;2023-02-15T00:25:42;37.78;;;16.75;;
20411;SDS011;10365;52.578;8.138;2023-02-15T00:28:07;38.40;;;16.63;;
20411;SDS011;10365;52.578;8.138;2023-02-15T00:30:33;43.90;;;18.20;;
20411;SDS011;10365;52.578;8.138;2023-02-15T00:32:59;36.05;;;17.40;;
20411;SDS011;10365;52.578;8.138;2023-02-15T00:35:25;42.13;;;15.90;;
20411;SDS011;10365;52.578;8.138;2023-02-15T00:37:50;37.58;;;17.60;;
20411;SDS011;10365;52.578;8.138;2023-02-15T00:40:17;42.25;;;17.23;;
20411;SDS011;10365;52.578;8.138;2023-02-15T00:42:43;41.20;;;17.13;;
20411;SDS011;10365;52.578;8.138;2023-02-15T00:45:08;36.00;;;15.98;;
20411;SDS011;10365;52.578;8.138;2023-02-15T00:47:34;35.60;;;16.33;;
20411;SDS011;10365;52.578;8.138;2023-02-15T00:49:59;38.00;;;17.77;;
20411;SDS011;10365;52.578;8.138;2023-02-15T00:52:25;35.13;;;16.70;;
20411;SDS011;10365;52.578;8.138;2023-02-15T00:54:50;41.20;;;17.20;;
20411;SDS011;10365;52.578;8.138;2023-02-15T00:57:16;38.83;;;17.05;;
20411;SDS011;10365;52.578;8.138;2023-02-15T00:59:41;40.83;;;17.95;;
20411;SDS011;10365;52.578;8.138;2023-02-15T01:02:06;44.08;;;19.10;;
20411;SDS011;10365;52.578;8.138;2023-02-15T01:04:32;40.53;;;18.83;;
20411;SDS011;10365;52.578;8.138;2023-02-15T01:06:57;39.55;;;18.85;;
20411;SDS011;10365;52.578;8.138;2023-02-15T01:09:22;37.30;;;18.38;;
20411;SDS011;10365;52.578;8.138;2023-02-15T01:11:48;45.60;;;20.98;;
20411;SDS011;10365;52.578;8.138;2023-02-15T01:14:13;41.17;;;19.92;;
20411;SDS011;10365;52.578;8.138;2023-02-15T01:16:40;44.05;;;20.45;;
20411;SDS011;10365;52.578;8.138;2023-02-15T01:19:06;41.13;;;18.63;;
20411;SDS011;10365;52.578;8.138;2023-02-15T01:21:31;49.65;;;21.85;;
20411;SDS011;10365;52.578;8.138;2023-02-15T01:23:59;46.55;;;20.40;;
20411;SDS011;10365;52.578;8.138;2023-02-15T01:26:25;54.45;;;20.77;;
20411;SDS011;10365;52.578;8.138;2023-02-15T01:28:50;47.58;;;20.63;;
20411;SDS011;10365;52.578;8.138;2023-02-15T01:31:17;41.00;;;20.38;;
20411;SDS011;10365;52.578;8.138;2023-02-15T01:33:44;42.30;;;20.13;;
20411;SDS011;10365;52.578;8.138;2023-02-15T01:36:09;40.00;;;17.98;;
20411;SDS011;10365;52.578;8.138;2023-02-15T01:38:35;43.00;;;19.42;;
20411;SDS011;10365;52.578;8.138;2023-02-15T01:41:01;38.58;;;19.50;;
20411;SDS011;10365;52.578;8.138;2023-02-15T01:43:46;47.35;;;20.33;;
20411;SDS011;10365;52.578;8.138;2023-02-15T01:46:13;37.22;;;18.40;;
20411;SDS011;10365;52.578;8.138;2023-02-15T01:48:48;42.13;;;19.35;;
20411;SDS011;10365;52.578;8.138;2023-02-15T01:51:17;38.05;;;18.30;;
20411;SDS011;10365;52.578;8.138;2023-02-15T01:54:30;36.85;;;17.55;;
20411;SDS011;10365;52.578;8.138;2023-02-15T01:56:31;34.15;;;17.05;;
20411;SDS011;10365;52.578;8.138;2023-02-15T01:58:58;41.33;;;19.80;;
20411;SDS011;10365;52.578;8.138;2023-02-15T02:01:25;42.35;;;18.58;;
20411;SDS011;10365;52.578;8.138;2023-02-15T02:04:09;37.45;;;18.33;;
20411;SDS011;10365;52.578;8.138;2023-02-15T02:06:36;43.75;;;21.35;;
20411;SDS011;10365;52.578;8.138;2023-02-15T02:09:05;40.05;;;20.60;;
20411;SDS011;10365;52.578;8.138;2023-02-15T02:11:30;48.67;;;21.35;;
20411;SDS011;10365;52.578;8.138;2023-02-15T02:13:56;48.10;;;22.27;;
20411;SDS011;10365;52.578;8.138;2023-02-15T02:26:42;38.67;;;18.40;;
20411;SDS011;10365;52.578;8.138;2023-02-15T02:29:26;37.75;;;17.67;;
20411;SDS011;10365;52.578;8.138;2023-02-15T02:34:49;42.58;;;19.05;;
20411;SDS011;10365;52.578;8.138;2023-02-15T02:42:35;45.63;;;20.55;;
20411;SDS011;10365;52.578;8.138;2023-02-15T02:45:03;46.50;;;19.42;;
20411;SDS011;10365;52.578;8.138;2023-02-15T02:47:33;43.20;;;19.98;;
20411;SDS011;10365;52.578;8.138;2023-02-15T02:50:00;48.15;;;19.85;;
20411;SDS011;10365;52.578;8.138;2023-02-15T02:52:40;43.17;;;20.42;;
20411;SDS011;10365;52.578;8.138;2023-02-15T03:00:22;44.97;;;19.98;;
20411;SDS011;10365;52.578;8.138;2023-02-15T03:02:49;40.47;;;20.10;;
20411;SDS011;10365;52.578;8.138;2023-02-15T03:05:17;37.90;;;18.20;;
20411;SDS011;10365;52.578;8.138;2023-02-15T03:07:45;48.17;;;20.75;;
20411;SDS011;10365;52.578;8.138;2023-02-15T03:10:12;43.80;;;19.42;;
20411;SDS011;10365;52.578;8.138;2023-02-15T03:12:38;50.80;;;20.90;;
20411;SDS011;10365;52.578;8.138;2023-02-15T03:15:10;44.10;;;19.85;;
20411;SDS011;10365;52.578;8.138;2023-02-15T03:17:38;47.08;;;19.20;;
20411;SDS011;10365;52.578;8.138;2023-02-15T03:20:10;40.53;;;19.27;;
20411;SDS011;10365;52.578;8.138;2023-02-15T03:22:41;49.28;;;20.10;;
20411;SDS011;10365;52.578;8.138;2023-02-15T03:25:12;45.38;;;19.67;;
20411;SDS011;10365;52.578;8.138;2023-02-15T03:27:42;43.28;;;20.20;;
20411;SDS011;10365;52.578;8.138;2023-02-15T03:30:09;42.15;;;19.77;;
20411;SDS011;10365;52.578;8.138;2023-02-15T03:32:35;45.15;;;20.27;;
20411;SDS011;10365;52.578;8.138;2023-02-15T03:35:02;46.80;;;20.48;;
20411;SDS011;10365;52.578;8.138;2023-02-15T03:37:32;45.70;;;21.20;;
20411;SDS011;10365;52.578;8.138;2023-02-15T03:39:59;43.05;;;20.48;;
20411;SDS011;10365;52.578;8.138;2023-02-15T03:42:48;39.30;;;19.20;;
20411;SDS011;10365;52.578;8.138;2023-02-15T03:45:17;47.15;;;20.05;;
20411;SDS011;10365;52.578;8.138;2023-02-15T03:47:46;54.25;;;21.15;;
20411;SDS011;10365;52.578;8.138;2023-02-15T03:50:17;44.03;;;19.80;;
20411;SDS011;10365;52.578;8.138;2023-02-15T03:53:02;43.47;;;19.98;;
20411;SDS011;10365;52.578;8.138;2023-02-15T03:55:30;45.95;;;21.40;;
20411;SDS011;10365;52.578;8.138;2023-02-15T03:57:55;39.95;;;19.05;;
20411;SDS011;10365;52.578;8.138;2023-02-15T04:00:40;43.88;;;20.52;;
20411;SDS011;10365;52.578;8.138;2023-02-15T04:03:35;45.08;;;20.75;;
20411;SDS011;10365;52.578;8.138;2023-02-15T04:06:02;48.00;;;22.40;;
20411;SDS011;10365;52.578;8.138;2023-02-15T04:08:27;53.88;;;23.40;;
20411;SDS011;10365;52.578;8.138;2023-02-15T04:11:12;49.38;;;21.52;;
20411;SDS011;10365;52.578;8.138;2023-02-15T04:13:37;48.85;;;21.50;;
20411;SDS011;10365;52.578;8.138;2023-02-15T04:16:03;47.00;;;20.45;;
20411;SDS011;10365;52.578;8.138;2023-02-15T04:18:32;46.45;;;20.90;;
20411;SDS011;10365;52.578;8.138;2023-02-15T04:21:17;41.20;;;18.77;;
20411;SDS011;10365;52.578;8.138;2023-02-15T04:24:01;44.95;;;19.35;;
20411;SDS011;10365;52.578;8.138;2023-02-15T04:26:45;35.28;;;18.38;;
20411;SDS011;10365;52.578;8.138;2023-02-15T04:29:13;40.55;;;18.38;;
20411;SDS011;10365;52.578;8.138;2023-02-15T04:31:38;35.47;;;18.15;;
20411;SDS011;10365;52.578;8.138;2023-02-15T04:34:03;42.80;;;19.33;;
20411;SDS011;10365;52.578;8.138;2023-02-15T04:36:29;43.63;;;18.80;;
20411;SDS011;10365;52.578;8.138;2023-02-15T04:38:54;38.78;;;17.58;;
20411;SDS011;10365;52.578;8.138;2023-02-15T04:41:20;51.65;;;23.08;;
20411;SDS011;10365;52.578;8.138;2023-02-15T04:43:45;55.97;;;24.33;;
20411;SDS011;10365;52.578;8.138;2023-02-15T04:46:10;56.08;;;24.25;;
20411;SDS011;10365;52.578;8.138;2023-02-15T04:48:36;59.85;;;24.55;;
20411;SDS011;10365;52.578;8.138;2023-02-15T04:51:05;51.72;;;22.63;;
20411;SDS011;10365;52.578;8.138;2023-02-15T04:53:31;57.40;;;22.95;;
20411;SDS011;10365;52.578;8.138;2023-02-15T04:55:56;58.55;;;22.23;;
20411;SDS011;10365;52.578;8.138;2023-02-15T04:58:21;53.88;;;21.38;;
20411;SDS011;10365;52.578;8.138;2023-02-15T05:00:47;52.35;;;21.95;;
20411;SDS011;10365;52.578;8.138;2023-02-15T05:03:12;41.10;;;19.58;;
20411;SDS011;10365;52.578;8.138;2023-02-15T05:05:37;54.13;;;22.17;;
20411;SDS011;10365;52.578;8.138;2023-02-15T05:08:03;53.28;;;21.40;;
20411;SDS011;10365;52.578;8.138;2023-02-15T05:10:28;49.72;;;19.67;;
20411;SDS011;10365;52.578;8.138;2023-02-15T05:12:53;48.42;;;21.65;;
20411;SDS011;10365;52.578;8.138;2023-02-15T05:15:19;62.55;;;22.23;;
20411;SDS011;10365;52.578;8.138;2023-02-15T05:17:44;53.15;;;22.40;;
20411;SDS011;10365;52.578;8.138;2023-02-15T05:20:09;46.83;;;18.90;;
20411;SDS011;10365;52.578;8.138;2023-02-15T05:22:35;50.13;;;21.05;;
20411;SDS011;10365;52.578;8.138;2023-02-15T05:25:00;47.97;;;19.42;;
20411;SDS011;10365;52.578;8.138;2023-02-15T05:27:44;38.47;;;18.27;;
20411;SDS011;10365;52.578;8.138;2023-02-15T05:30:28;45.20;;;18.98;;
20411;SDS011;10365;52.578;8.138;2023-02-15T05:32:54;42.38;;;19.30;;
20411;SDS011;10365;52.578;8.138;2023-02-15T05:35:19;41.85;;;18.05;;
20411;SDS011;10365;52.578;8.138;2023-02-15T05:37:44;41.30;;;18.42;;
20411;SDS011;10365;52.578;8.138;2023-02-15T05:40:10;43.65;;;18.88;;
20411;SDS011;10365;52.578;8.138;2023-02-15T05:42:35;39.33;;;18.23;;
20411;SDS011;10365;52.578;8.138;2023-02-15T05:45:01;43.20;;;18.85;;
20411;SDS011;10365;52.578;8.138;2023-02-15T05:47:28;41.75;;;17.13;;
20411;SDS011;10365;52.578;8.138;2023-02-15T05:49:54;41.58;;;17.67;;
20411;SDS011;10365;52.578;8.138;2023-02-15T05:52:19;38.30;;;18.55;;
20411;SDS011;10365;52.578;8.138;2023-02-15T05:54:45;35.63;;;16.42;;
20411;SDS011;10365;52.578;8.138;2023-02-15T05:57:10;40.42;;;18.67;;
20411;SDS011;10365;52.578;8.138;2023-02-15T05:59:35;38.65;;;17.75;;
20411;SDS011;10365;52.578;8.138;2023-02-15T06:02:01;36.50;;;16.80;;
20411;SDS011;10365;52.578;8.138;2023-02-15T06:04:27;39.58;;;17.25;;
20411;SDS011;10365;52.578;8.138;2023-02-15T06:06:52;34.70;;;17.13;;
20411;SDS011;10365;52.578;8.138;2023-02-15T06:09:17;30.30;;;14.85;;
20411;SDS011;10365;52.578;8.138;2023-02-15T06:11:44;34.78;;;16.33;;
20411;SDS011;10365;52.578;8.138;2023-02-15T06:14:10;33.13;;;16.17;;
20411;SDS011;10365;52.578;8.138;2023-02-15T06:16:36;32.40;;;15.35;;
20411;SDS011;10365;52.578;8.138;2023-02-15T06:19:01;37.38;;;17.00;;
20411;SDS011;10365;52.578;8.138;2023-02-15T06:21:27;36.53;;;16.05;;
20411;SDS011;10365;52.578;8.138;2023-02-15T06:23:52;33.65;;;15.77;;
20411;SDS011;10365;52.578;8.138;2023-02-15T06:26:17;36.75;;;17.25;;
20411;SDS011;10365;52.578;8.138;2023-02-15T06:28:43;38.70;;;16.98;;
20411;SDS011;10365;52.578;8.138;2023-02-15T06:31:08;38.67;;;16.88;;
20411;SDS011;10365;52.578;8.138;2023-02-15T06:33:34;42.25;;;17.05;;
20411;SDS011;10365;52.578;8.138;2023-02-15T06:35:59;44.67;;;18.73;;
20411;SDS011;10365;52.578;8.138;2023-02-15T06:38:25;37.90;;;18.00;;
20411;SDS011;10365;52.578;8.138;2023-02-15T06:40:50;40.47;;;17.45;;
20411;SDS011;10365;52.578;8.138;2023-02-15T06:43:16;34.40;;;18.08;;
20411;SDS011;10365;52.578;8.138;2023-02-15T06:45:41;38.13;;;17.40;;
20411;SDS011;10365;52.578;8.138;2023-02-15T06:48:06;42.13;;;18.67;;
20411;SDS011;10365;52.578;8.138;2023-02-15T06:50:33;42.63;;;18.67;;
20411;SDS011;10365;52.578;8.138;2023-02-15T06:52:58;38.13;;;18.33;;
20411;SDS011;10365;52.578;8.138;2023-02-15T06:55:24;37.90;;;18.13;;
20411;SDS011;10365;52.578;8.138;2023-02-15T06:57:50;43.33;;;19.42;;
20411;SDS011;10365;52.578;8.138;2023-02-15T07:00:15;42.28;;;19.80;;
20411;SDS011;10365;52.578;8.138;2023-02-15T07:02:40;44.85;;;21.50;;
20411;SDS011;10365;52.578;8.138;2023-02-15T07:05:06;45.33;;;20.02;;
20411;SDS011;10365;52.578;8.138;2023-02-15T07:07:31;48.05;;;20.23;;
20411;SDS011;10365;52.578;8.138;2023-02-15T07:09:56;43.55;;;20.80;;
20411;SDS011;10365;52.578;8.138;2023-02-15T07:12:22;49.17;;;22.77;;
20411;SDS011;10365;52.578;8.138;2023-02-15T07:15:06;39.22;;;19.73;;
20411;SDS011;10365;52.578;8.138;2023-02-15T07:17:32;44.83;;;20.17;;
20411;SDS011;10365;52.578;8.138;2023-02-15T07:19:58;44.28;;;21.40;;
20411;SDS011;10365;52.578;8.138;2023-02-15T07:22:23;55.10;;;22.60;;
20411;SDS011;10365;52.578;8.138;2023-02-15T07:24:48;50.00;;;21.88;;
20411;SDS011;10365;52.578;8.138;2023-02-15T07:27:14;46.60;;;23.05;;
20411;SDS011;10365;52.578;8.138;2023-02-15T07:29:39;49.75;;;22.98;;
20411;SDS011;10365;52.578;8.138;2023-02-15T07:32:05;41.30;;;20.73;;
20411;SDS011;10365;52.578;8.138;2023-02-15T07:34:30;49.28;;;23.65;;
20411;SDS011;10365;52.578;8.138;2023-02-15T07:36:56;48.13;;;22.63;;
20411;SDS011;10365;52.578;8.138;2023-02-15T07:39:22;51.35;;;22.75;;
20411;SDS011;10365;52.578;8.138;2023-02-15T07:41:47;53.78;;;23.65;;
20411;SDS011;10365;52.578;8.138;2023-02-15T07:44:13;51.38;;;22.33;;
20411;SDS011;10365;52.578;8.138;2023-02-15T07:46:38;47.53;;;22.95;;
20411;SDS011;10365;52.578;8.138;2023-02-15T07:49:04;56.70;;;23.40;;
20411;SDS011;10365;52.578;8.138;2023-02-15T07:51:29;52.90;;;23.88;;
20411;SDS011;10365;52.578;8.138;2023-02-15T07:53:54;50.17;;;24.15;;
20411;SDS011;10365;52.578;8.138;2023-02-15T07:56:20;56.22;;;25.25;;
20411;SDS011;10365;52.578;8.138;2023-02-15T07:58:45;56.47;;;26.30;;
20411;SDS011;10365;52.578;8.138;2023-02-15T08:01:21;54.47;;;26.38;;
20411;SDS011;10365;52.578;8.138;2023-02-15T08:03:47;58.72;;;28.20;;
20411;SDS011;10365;52.578;8.138;2023-02-15T08:06:12;58.97;;;26.15;;
20411;SDS011;10365;52.578;8.138;2023-02-15T08:08:38;56.38;;;26.48;;
20411;SDS011;10365;52.578;8.138;2023-02-15T08:11:05;64.85;;;26.95;;
20411;SDS011;10365;52.578;8.138;2023-02-15T08:13:50;55.63;;;26.23;;
20411;SDS011;10365;52.578;8.138;2023-02-15T08:16:52;53.83;;;26.50;;
20411;SDS011;10365;52.578;8.138;2023-02-15T08:19:14;59.65;;;25.92;;
20411;SDS011;10365;52.578;8.138;2023-02-15T08:21:41;53.40;;;27.13;;
20411;SDS011;10365;52.578;8.138;2023-02-15T08:24:07;55.30;;;25.50;;
20411;SDS011;10365;52.578;8.138;2023-02-15T08:26:33;62.75;;;28.17;;
20411;SDS011;10365;52.578;8.138;2023-02-15T08:28:59;64.35;;;25.83;;
20411;SDS011;10365;52.578;8.138;2023-02-15T08:31:24;60.50;;;26.08;;
20411;SDS011;10365;52.578;8.138;2023-02-15T08:33:50;54.13;;;25.55;;
20411;SDS011;10365;52.578;8.138;2023-02-15T08:36:17;59.05;;;27.67;;
20411;SDS011;10365;52.578;8.138;2023-02-15T08:38:43;53.28;;;27.50;;
20411;SDS011;10365;52.578;8.138;2023-02-15T08:41:12;55.72;;;27.75;;
20411;SDS011;10365;52.578;8.138;2023-02-15T08:43:38;68.43;;;30.13;;
20411;SDS011;10365;52.578;8.138;2023-02-15T08:46:04;71.45;;;32.63;;
20411;SDS011;10365;52.578;8.138;2023-02-15T08:48:30;80.93;;;35.67;;
20411;SDS011;10365;52.578;8.138;2023-02-15T08:50:55;74.80;;;34.63;;
20411;SDS011;10365;52.578;8.138;2023-02-15T08:53:20;68.30;;;32.90;;
20411;SDS011;10365;52.578;8.138;2023-02-15T08:55:47;64.10;;;29.80;;
20411;SDS011;10365;52.578;8.138;2023-02-15T08:58:12;58.65;;;29.15;;
20411;SDS011;10365;52.578;8.138;2023-02-15T09:00:37;60.55;;;27.88;;
20411;SDS011;10365;52.578;8.138;2023-02-15T09:03:03;63.92;;;29.17;;
20411;SDS011;10365;52.578;8.138;2023-02-15T09:05:28;66.68;;;29.23;;
20411;SDS011;10365;52.578;8.138;2023-02-15T09:07:53;66.15;;;28.05;;
20411;SDS011;10365;52.578;8.138;2023-02-15T09:10:19;59.75;;;29.73;;
20411;SDS011;10365;52.578;8.138;2023-02-15T09:12:45;58.30;;;28.55;;
20411;SDS011;10365;52.578;8.138;2023-02-15T09:15:10;47.75;;;26.10;;
20411;SDS011;10365;52.578;8.138;2023-02-15T09:17:35;51.75;;;25.90;;
20411;SDS011;10365;52.578;8.138;2023-02-15T09:20:01;46.60;;;24.48;;
20411;SDS011;10365;52.578;8.138;2023-02-15T09:22:26;49.88;;;24.13;;
20411;SDS011;10365;52.578;8.138;2023-02-15T09:24:52;42.53;;;23.48;;
20411;SDS011;10365;52.578;8.138;2023-02-15T09:27:17;53.22;;;24.02;;
20411;SDS011;10365;52.578;8.138;2023-02-15T09:29:43;52.53;;;24.98;;
20411;SDS011;10365;52.578;8.138;2023-02-15T09:32:08;46.03;;;25.88;;
20411;SDS011;10365;52.578;8.138;2023-02-15T09:34:33;61.60;;;32.60;;
20411;SDS011;10365;52.578;8.138;2023-02-15T09:36:59;45.30;;;26.50;;
20411;SDS011;10365;52.578;8.138;2023-02-15T09:39:25;41.58;;;24.25;;
20411;SDS011;10365;52.578;8.138;2023-02-15T09:47:00;40.35;;;22.95;;
20411;SDS011;10365;52.578;8.138;2023-02-15T09:49:38;39.30;;;22.15;;
20411;SDS011;10365;52.578;8.138;2023-02-15T09:54:40;35.88;;;21.05;;
20411;SDS011;10365;52.578;8.138;2023-02-15T10:02:22;32.75;;;20.58;;
20411;SDS011;10365;52.578;8.138;2023-02-15T10:28:49;30.48;;;19.23;;
20411;SDS011;10365;52.578;8.138;2023-02-15T10:31:18;31.15;;;19.58;;
20411;SDS011;10365;52.578;8.138;2023-02-15T10:33:46;31.42;;;20.00;;
20411;SDS011;10365;52.578;8.138;2023-02-15T10:38:58;31.30;;;19.25;;
20411;SDS011;10365;52.578;8.138;2023-02-15T10:51:59;30.77;;;19.13;;
20411;SDS011;10365;52.578;8.138;2023-02-15T10:57:15;34.13;;;20.40;;
20411;SDS011;10365;52.578;8.138;2023-02-15T11:05:16;32.47;;;20.88;;
20411;SDS011;10365;52.578;8.138;2023-02-15T11:07:45;32.47;;;19.60;;
20411;SDS011;10365;52.578;8.138;2023-02-15T11:12:56;29.65;;;18.02;;
20411;SDS011;10365;52.578;8.138;2023-02-15T11:18:02;30.17;;;19.05;;
20411;SDS011;10365;52.578;8.138;2023-02-15T11:20:33;29.45;;;18.60;;
20411;SDS011;10365;52.578;8.138;2023-02-15T11:23:00;27.80;;;18.45;;
20411;SDS011;10365;52.578;8.138;2023-02-15T11:25:30;28.23;;;18.40;;
20411;SDS011;10365;52.578;8.138;2023-02-15T11:27:56;33.97;;;19.98;;
20411;SDS011;10365;52.578;8.138;2023-02-15T11:30:22;30.55;;;19.25;;
20411;SDS011;10365;52.578;8.138;2023-02-15T11:32:49;30.00;;;18.63;;
20411;SDS011;10365;52.578;8.138;2023-02-15T11:36:17;31.50;;;20.80;;
20411;SDS011;10365;52.578;8.138;2023-02-15T11:38:24;31.65;;;18.90;;
20411;SDS011;10365;52.578;8.138;2023-02-15T11:40:52;30.13;;;19.33;;
20411;SDS011;10365;52.578;8.138;2023-02-15T11:43:26;29.38;;;19.75;;
20411;SDS011;10365;52.578;8.138;2023-02-15T11:45:54;30.60;;;18.70;;
20411;SDS011;10365;52.578;8.138;2023-02-15T11:48:19;32.13;;;19.25;;
20411;SDS011;10365;52.578;8.138;2023-02-15T11:50:45;30.80;;;19.80;;
20411;SDS011;10365;52.578;8.138;2023-02-15T11:53:14;31.95;;;20.60;;
20411;SDS011;10365;52.578;8.138;2023-02-15T11:55:44;33.47;;;21.30;;
20411;SDS011;10365;52.578;8.138;2023-02-15T12:00:45;32.30;;;20.90;;
20411;SDS011;10365;52.578;8.138;2023-02-15T12:03:22;32.65;;;21.73;;
20411;SDS011;10365;52.578;8.138;2023-02-15T12:05:50;33.40;;;21.38;;
20411;SDS011;10365;52.578;8.138;2023-02-15T12:08:19;31.30;;;20.55;;
20411;SDS011;10365;52.578;8.138;2023-02-15T12:10:55;30.50;;;19.83;;
20411;SDS011;10365;52.578;8.138;2023-02-15T12:13:22;29.65;;;19.05;;
20411;SDS011;10365;52.578;8.138;2023-02-15T12:15:51;32.50;;;21.55;;
20411;SDS011;10365;52.578;8.138;2023-02-15T12:18:19;33.30;;;20.40;;
20411;SDS011;10365;52.578;8.138;2023-02-15T12:20:44;33.00;;;20.10;;
20411;SDS011;10365;52.578;8.138;2023-02-15T12:23:12;36.33;;;22.33;;
20411;SDS011;10365;52.578;8.138;2023-02-15T12:25:42;31.65;;;20.38;;
20411;SDS011;10365;52.578;8.138;2023-02-15T12:28:23;31.25;;;21.23;;
20411;SDS011;10365;52.578;8.138;2023-02-15T12:30:49;34.78;;;21.23;;
20411;SDS011;10365;52.578;8.138;2023-02-15T12:35:40;32.05;;;19.95;;
20411;SDS011;10365;52.578;8.138;2023-02-15T12:40:35;30.33;;;19.67;;
20411;SDS011;10365;52.578;8.138;2023-02-15T12:43:01;31.23;;;20.70;;
20411;SDS011;10365;52.578;8.138;2023-02-15T12:45:34;31.70;;;21.33;;
20411;SDS011;10365;52.578;8.138;2023-02-15T12:48:12;34.38;;;20.70;;
20411;SDS011;10365;52.578;8.138;2023-02-15T12:50:45;32.63;;;21.90;;
20411;SDS011;10365;52.578;8.138;2023-02-15T12:55:42;35.03;;;20.63;;
20411;SDS011;10365;52.578;8.138;2023-02-15T12:58:18;31.88;;;20.65;;
20411;SDS011;10365;52.578;8.138;2023-02-15T13:00:43;32.58;;;20.98;;
20411;SDS011;10365;52.578;8.138;2023-02-15T13:03:18;32.42;;;21.50;;
20411;SDS011;10365;52.578;8.138;2023-02-15T13:05:46;32.83;;;20.60;;
20411;SDS011;10365;52.578;8.138;2023-02-15T13:08:14;38.50;;;22.20;;
20411;SDS011;10365;52.578;8.138;2023-02-15T13:11:02;33.80;;;21.60;;
20411;SDS011;10365;52.578;8.138;2023-02-15T13:13:30;37.67;;;21.65;;
20411;SDS011;10365;52.578;8.138;2023-02-15T13:15:58;35.33;;;22.20;;
20411;SDS011;10365;52.578;8.138;2023-02-15T13:20:49;37.70;;;23.00;;
20411;SDS011;10365;52.578;8.138;2023-02-15T13:23:35;36.75;;;21.40;;
20411;SDS011;10365;52.578;8.138;2023-02-15T13:26:02;33.35;;;22.13;;
20411;SDS011;10365;52.578;8.138;2023-02-15T13:28:42;33.80;;;22.08;;
20411;SDS011;10365;52.578;8.138;2023-02-15T13:31:13;36.53;;;20.50;;
20411;SDS011;10365;52.578;8.138;2023-02-15T13:33:39;37.28;;;22.45;;
20411;SDS011;10365;52.578;8.138;2023-02-15T13:38:43;35.17;;;22.80;;
20411;SDS011;10365;52.578;8.138;2023-02-15T13:41:12;36.75;;;22.85;;
20411;SDS011;10365;52.578;8.138;2023-02-15T13:46:11;37.42;;;23.15;;
20411;SDS011;10365;52.578;8.138;2023-02-15T13:48:55;38.95;;;22.83;;
20411;SDS011;10365;52.578;8.138;2023-02-15T13:56:46;38.95;;;24.00;;
20411;SDS011;10365;52.578;8.138;2023-02-15T14:04:21;44.60;;;27.65;;
20411;SDS011;10365;52.578;8.138;2023-02-15T14:27:45;40.50;;;23.85;;
20411;SDS011;10365;52.578;8.138;2023-02-15T14:30:21;44.28;;;23.80;;
20411;SDS011;10365;52.578;8.138;2023-02-15T14:32:49;40.47;;;23.38;;
20411;SDS011;10365;52.578;8.138;2023-02-15T14:35:20;39.20;;;22.88;;
20411;SDS011;10365;52.578;8.138;2023-02-15T14:43:00;39.25;;;23.17;;
20411;SDS011;10365;52.578;8.138;2023-02-15T14:55:40;43.17;;;25.45;;
20411;SDS011;10365;52.578;8.138;2023-02-15T14:58:09;46.17;;;24.60;;
20411;SDS011;10365;52.578;8.138;2023-02-15T15:00:37;39.63;;;23.20;;
20411;SDS011;10365;52.578;8.138;2023-02-15T15:03:04;43.40;;;24.95;;
20411;SDS011;10365;52.578;8.138;2023-02-15T15:05:35;44.33;;;24.10;;
20411;SDS011;10365;52.578;8.138;2023-02-15T15:08:01;49.60;;;25.08;;
20411;SDS011;10365;52.578;8.138;2023-02-15T15:10:44;42.60;;;23.80;;
20411;SDS011;10365;52.578;8.138;2023-02-15T15:15:54;41.30;;;24.73;;
20411;SDS011;10365;52.578;8.138;2023-02-15T15:21:04;48.33;;;23.88;;
20411;SDS011;10365;52.578;8.138;2023-02-15T15:23:42;45.30;;;24.00;;
20411;SDS011;10365;52.578;8.138;2023-02-15T15:26:28;47.58;;;23.77;;
20411;SDS011;10365;52.578;8.138;2023-02-15T15:28:55;46.53;;;22.67;;
20411;SDS011;10365;52.578;8.138;2023-02-15T15:36:52;42.60;;;22.15;;
20411;SDS011;10365;52.578;8.138;2023-02-15T15:42:01;43.20;;;22.27;;
20411;SDS011;10365;52.578;8.138;2023-02-15T15:44:40;43.33;;;22.02;;
20411;SDS011;10365;52.578;8.138;2023-02-15T15:49:44;42.83;;;22.38;;
20411;SDS011;10365;52.578;8.138;2023-02-15T15:52:14;43.80;;;22.30;;
20411;SDS011;10365;52.578;8.138;2023-02-15T15:54:40;44.30;;;22.40;;
20411;SDS011;10365;52.578;8.138;2023-02-15T15:57:11;47.55;;;24.45;;
20411;SDS011;10365;52.578;8.138;2023-02-15T15:59:37;41.38;;;22.58;;
20411;SDS011;10365;52.578;8.138;2023-02-15T16:02:11;46.63;;;22.55;;
20411;SDS011;10365;52.578;8.138;2023-02-15T16:04:38;41.40;;;21.35;;
20411;SDS011;10365;52.578;8.138;2023-02-15T16:09:40;43.15;;;22.65;;
20411;SDS011;10365;52.578;8.138;2023-02-15T16:12:13;43.75;;;22.33;;
20411;SDS011;10365;52.578;8.138;2023-02-15T16:14:39;45.67;;;21.90;;
20411;SDS011;10365;52.578;8.138;2023-02-15T16:17:06;41.95;;;21.67;;
20411;SDS011;10365;52.578;8.138;2023-02-15T16:19:38;43.10;;;21.63;;
20411;SDS011;10365;52.578;8.138;2023-02-15T16:22:13;48.85;;;22.10;;
20411;SDS011;10365;52.578;8.138;2023-02-15T16:27:26;44.28;;;21.30;;
20411;SDS011;10365;52.578;8.138;2023-02-15T16:29:53;45.35;;;21.25;;
20411;SDS011;10365;52.578;8.138;2023-02-15T16:32:20;41.00;;;20.85;;
20411;SDS011;10365;52.578;8.138;2023-02-15T16:34:56;41.53;;;21.08;;
20411;SDS011;10365;52.578;8.138;2023-02-15T16:37:23;46.53;;;21.50;;
20411;SDS011;10365;52.578;8.138;2023-02-15T16:39:51;42.53;;;22.35;;
20411;SDS011;10365;52.578;8.138;2023-02-15T16:42:17;46.25;;;21.65;;
20411;SDS011;10365;52.578;8.138;2023-02-15T16:44:45;50.50;;;22.17;;
20411;SDS011;10365;52.578;8.138;2023-02-15T16:47:16;46.10;;;21.45;;
20411;SDS011;10365;52.578;8.138;2023-02-15T16:49:43;47.47;;;20.83;;
20411;SDS011;10365;52.578;8.138;2023-02-15T16:52:11;43.25;;;20.77;;
20411;SDS011;10365;52.578;8.138;2023-02-15T16:54:39;42.88;;;21.67;;
20411;SDS011;10365;52.578;8.138;2023-02-15T16:57:13;47.75;;;21.77;;
20411;SDS011;10365;52.578;8.138;2023-02-15T16:59:41;47.95;;;22.52;;
20411;SDS011;10365;52.578;8.138;2023-02-15T17:02:12;45.97;;;21.55;;
20411;SDS011;10365;52.578;8.138;2023-02-15T17:04:39;52.42;;;21.77;;
20411;SDS011;10365;52.578;8.138;2023-02-15T17:07:20;45.47;;;21.58;;
20411;SDS011;10365;52.578;8.138;2023-02-15T17:09:53;44.05;;;20.52;;
20411;SDS011;10365;52.578;8.138;2023-02-15T17:15:03;46.05;;;22.30;;
20411;SDS011;10365;52.578;8.138;2023-02-15T17:17:30;47.05;;;21.15;;
20411;SDS011;10365;52.578;8.138;2023-02-15T17:19:56;45.47;;;20.83;;
20411;SDS011;10365;52.578;8.138;2023-02-15T17:22:22;46.85;;;21.35;;
20411;SDS011;10365;52.578;8.138;2023-02-15T17:24:48;51.92;;;24.52;;